Time;durP1;ratioP1;P1;durP2;ratioP2;P2;SDS_P1;SDS_P2;PMS_P1;PMS_P2;Temp;Humidity;BMP_temperature;BMP_pressure;BME280_temperature;BME280_humidity;BME280_pressure;Samples;Min_cycle;Max_cycle;Signal;HPM_P1;HPM_P2
2021/05/11 00:00:36;;;;;;;2.47;1.63;;;15.00;99.90;;;16.38;79.31;99861.34;5075653;28;20131;-79
2021/05/11 00:03:03;;;;;;;2.33;1.75;;;15.00;99.90;;;16.42;79.82;99875.41;5073393;28;20028;-81
2021/05/11 00:05:30;;;;;;;4.43;1.80;;;15.00;99.90;;;16.43;80.02;99882.66;5056308;28;20499;-81
2021/05/11 00:07:57;;;;;;;3.85;2.08;;;15.00;99.90;;;16.36;81.18;99886.34;5072542;28;20025;-80
2021/05/11 00:10:26;;;;;;;2.85;1.95;;;15.00;99.90;;;16.36;81.83;99897.59;5072923;28;20028;-78
2021/05/11 00:12:52;;;;;;;5.22;2.22;;;15.00;99.90;;;16.32;82.34;99892.00;5072811;28;20045;-82
2021/05/11 00:15:21;;;;;;;3.08;2.33;;;14.90;99.90;;;16.16;82.87;99903.00;5067580;28;20059;-80
2021/05/11 00:17:47;;;;;;;3.20;2.47;;;14.90;99.90;;;16.24;83.27;99903.75;5095484;28;20131;-79
2021/05/11 00:20:17;;;;;;;2.88;2.15;;;14.90;99.90;;;16.16;83.92;99908.63;5074612;28;20123;-79
2021/05/11 00:22:43;;;;;;;3.40;2.28;;;14.80;99.90;;;16.14;84.83;99910.25;5075312;28;20028;-81
2021/05/11 00:25:10;;;;;;;3.60;2.25;;;14.80;99.90;;;16.01;85.42;99909.13;5080345;28;20024;-80
2021/05/11 00:27:36;;;;;;;3.88;2.30;;;14.80;99.90;;;16.12;85.06;99907.84;5071989;28;20386;-81
2021/05/11 00:30:04;;;;;;;7.10;2.60;;;14.70;99.90;;;15.97;86.20;99909.16;5073126;28;20032;-82
2021/05/11 00:32:30;;;;;;;3.92;2.50;;;14.70;99.90;;;15.99;86.34;99903.13;5073205;28;20040;-81
2021/05/11 00:34:56;;;;;;;3.70;2.92;;;14.60;99.90;;;15.92;88.09;99920.06;5054409;28;20040;-78
2021/05/11 00:37:22;;;;;;;6.60;3.50;;;14.50;99.90;;;15.87;88.63;99917.66;5071310;28;20476;-82
2021/05/11 00:39:48;;;;;;;4.07;2.85;;;14.50;99.90;;;15.77;89.43;99920.13;5071739;28;20127;-82
2021/05/11 00:42:14;;;;;;;4.32;3.15;;;14.50;99.90;;;15.68;90.75;99921.81;5073507;28;20060;-81
2021/05/11 00:44:40;;;;;;;4.85;3.35;;;14.40;99.90;;;15.64;90.79;99910.56;5072915;28;20040;-82
2021/05/11 00:47:06;;;;;;;5.00;3.10;;;14.40;99.90;;;15.56;91.42;99902.56;5072493;28;20028;-81
2021/05/11 00:49:36;;;;;;;4.57;3.80;;;14.40;99.90;;;15.62;91.66;99900.94;5071622;28;20024;-79
2021/05/11 00:52:07;;;;;;;4.03;3.15;;;14.30;99.90;;;15.55;92.15;99884.06;5053834;28;20032;-81
2021/05/11 00:54:34;;;;;;;6.28;3.70;;;14.30;99.90;;;15.59;92.33;99882.03;5071445;28;20437;-81
2021/05/11 00:57:05;;;;;;;6.07;4.40;;;14.20;99.90;;;15.52;92.60;99888.50;5070315;28;20035;-82
2021/05/11 00:59:32;;;;;;;5.40;4.30;;;14.20;99.90;;;15.44;93.20;99883.31;5074677;28;20055;-80
2021/05/11 01:02:05;;;;;;;4.63;4.07;;;14.20;99.90;;;15.49;93.42;99885.72;5077330;28;20028;-81
2021/05/11 01:04:32;;;;;;;5.72;3.95;;;14.20;99.90;;;15.48;93.16;99873.66;5079651;28;20040;-80
2021/05/11 01:06:58;;;;;;;4.35;3.95;;;14.10;99.90;;;15.36;94.03;99884.53;5057438;28;20456;-82
2021/05/11 01:09:26;;;;;;;6.35;4.53;;;14.10;99.90;;;15.36;94.21;99876.91;5057059;28;20028;-80
2021/05/11 01:11:57;;;;;;;4.63;4.10;;;14.10;99.90;;;15.38;94.13;99870.88;5075304;28;20047;-81
2021/05/11 01:14:28;;;;;;;4.40;4.00;;;14.10;99.90;;;15.42;94.19;99871.63;5075807;28;20051;-81
2021/05/11 01:16:59;;;;;;;5.40;4.72;;;14.00;99.90;;;15.32;94.77;99870.47;5075220;28;20043;-79
2021/05/11 01:24:48;;;;;;;5.68;4.47;;;14.00;99.90;;;15.28;95.18;99869.72;5074610;28;20059;-81
2021/05/11 01:30:17;;;;;;;8.95;4.95;;;14.00;99.90;;;15.37;95.14;99886.16;5074998;28;20082;-81
2021/05/11 01:46:55;;;;;;;5.15;4.45;;;13.90;99.90;;;15.25;96.16;99876.16;5074705;28;20116;-81
2021/05/11 01:49:46;;;;;;;6.60;4.22;;;13.90;99.90;;;15.22;95.92;99874.13;5071914;28;20739;-82
2021/05/11 02:23:53;;;;;;;;;;;13.80;99.90;;;15.13;96.35;99877.41;5078046;28;20032;-78
2021/05/11 02:26:20;;;;;;;;;;;13.80;99.90;;;15.16;96.70;99884.22;5077876;28;19932;-78
2021/05/11 02:28:47;;;;;;;6.20;3.85;;;13.80;99.90;;;15.16;96.11;99881.41;5062101;28;19904;-80
2021/05/11 02:31:13;;;;;;;7.30;4.50;;;13.70;99.90;;;15.07;96.89;99884.66;5072329;28;20077;-79
2021/05/11 02:33:39;;;;;;;5.40;4.72;;;13.70;99.90;;;15.10;97.02;99871.78;5075101;28;20055;-79
2021/05/11 02:36:05;;;;;;;7.75;5.35;;;13.70;99.90;;;15.14;96.85;99879.00;5040572;28;20076;-80
2021/05/11 02:38:31;;;;;;;7.68;5.38;;;13.70;99.90;;;15.14;97.02;99873.38;5053479;28;20029;-80
2021/05/11 02:40:57;;;;;;;6.38;5.40;;;13.70;99.90;;;15.14;96.98;99870.56;5038751;28;20526;-81
2021/05/11 02:43:28;;;;;;;7.20;5.18;;;13.70;99.90;;;15.10;97.05;99874.59;5058846;28;20033;-81
2021/05/11 02:45:54;;;;;;;8.15;5.50;;;13.80;99.90;;;15.06;97.25;99868.97;5036222;28;20025;-83
2021/05/11 02:48:20;;;;;;;7.40;4.82;;;13.70;99.90;;;15.07;97.27;99872.59;5056073;28;20076;-84
2021/05/11 02:50:46;;;;;;;6.30;5.47;;;13.70;99.90;;;15.01;97.49;99869.41;5039179;28;20115;-81
2021/05/11 02:53:11;;;;;;;5.43;4.80;;;13.60;99.90;;;15.04;97.28;99862.16;5035489;28;20075;-82
2021/05/11 02:55:37;;;;;;;5.45;4.75;;;13.70;99.90;;;15.02;97.62;99871.03;5053168;28;20036;-83
2021/05/11 02:58:03;;;;;;;5.25;4.57;;;13.70;99.90;;;15.03;97.49;99869.00;5037587;28;20119;-81
2021/05/11 03:00:29;;;;;;;5.55;4.13;;;13.60;99.90;;;15.00;97.04;99864.19;5054249;28;20416;-78
2021/05/11 03:02:56;;;;;;;7.00;3.63;;;13.60;99.90;;;15.05;96.96;99863.78;5053818;28;20029;-81
2021/05/11 03:05:24;;;;;;;5.78;4.45;;;13.70;99.90;;;15.03;97.61;99866.97;5052854;28;20033;-79
2021/05/11 03:07:50;;;;;;;5.55;4.22;;;13.70;99.90;;;15.13;97.14;99874.59;5036393;28;20116;-81
2021/05/11 03:10:19;;;;;;;3.88;3.33;;;13.60;99.90;;;15.06;97.44;99874.59;5071185;28;20405;-81
2021/05/11 03:12:45;;;;;;;4.70;3.90;;;13.70;99.90;;;15.03;97.30;99861.34;5055166;28;20060;-81
2021/05/11 03:15:12;;;;;;;3.63;3.22;;;13.60;99.90;;;15.00;97.09;99864.97;5055492;28;20028;-82
2021/05/11 03:17:39;;;;;;;5.70;2.72;;;13.60;99.90;;;14.89;96.50;99860.63;5072562;28;20032;-82
2021/05/11 03:20:10;;;;;;;3.75;2.28;;;13.60;99.90;;;14.91;95.91;99861.00;5073501;28;20028;-82
2021/05/11 03:22:37;;;;;;;3.78;2.17;;;13.50;99.90;;;14.95;95.41;99856.97;5054991;28;20025;-81
2021/05/11 03:25:05;;;;;;;3.42;2.10;;;13.50;99.90;;;14.88;95.45;99859.81;5056919;28;20029;-81
2021/05/11 03:27:31;;;;;;;4.47;2.20;;;13.50;99.90;;;14.80;94.67;99865.88;5058264;28;20028;-83
2021/05/11 03:29:57;;;;;;;2.30;1.50;;;13.50;99.90;;;14.74;94.33;99862.63;5074764;28;20032;-81
2021/05/11 03:32:23;;;;;;;2.95;1.75;;;13.30;99.90;;;14.62;94.06;99852.66;5060719;28;20033;-81
2021/05/11 03:34:49;;;;;;;4.30;1.50;;;13.30;99.90;;;14.57;93.87;99857.88;5057822;28;20039;-83
2021/05/11 03:37:16;;;;;;;2.85;1.42;;;13.20;99.90;;;14.55;93.19;99851.84;5057741;28;20032;-81
2021/05/11 03:39:43;;;;;;;3.70;1.67;;;13.20;99.90;;;14.57;92.77;99843.84;5058261;28;20029;-82
2021/05/11 03:42:40;;;;;;;3.50;1.60;;;13.10;99.90;;;14.56;92.42;99847.84;5075890;28;20116;-79
2021/05/11 03:45:12;;;;;;;3.53;1.38;;;13.10;99.90;;;14.46;92.03;99851.47;5055378;28;20048;-81
2021/05/11 03:47:47;;;;;;;2.22;1.50;;;13.00;99.90;;;14.41;92.29;99858.31;5073471;28;20021;-81
2021/05/11 03:50:15;;;;;;;2.60;1.63;;;13.00;99.90;;;14.51;92.50;99865.91;5073886;28;20115;-80
2021/05/11 03:52:43;;;;;;;3.05;1.50;;;13.00;99.90;;;14.50;92.59;99858.69;5073941;28;20028;-82
2021/05/11 03:55:11;;;;;;;3.05;1.55;;;13.10;99.90;;;14.50;92.83;99864.31;5079040;28;20077;-81
2021/05/11 03:57:36;;;;;;;4.35;1.80;;;13.00;99.90;;;14.48;93.00;99855.47;5055409;28;20028;-80
2021/05/11 04:00:06;;;;;;;5.25;2.08;;;13.00;99.90;;;14.42;93.44;99851.47;5073325;28;20039;-81
2021/05/11 04:02:31;;;;;;;6.40;2.08;;;13.00;99.90;;;14.46;93.59;99857.88;5055069;28;20024;-82
2021/05/11 04:04:57;;;;;;;3.70;2.17;;;13.00;99.90;;;14.47;93.46;99847.47;5073001;28;20119;-80
2021/05/11 04:07:23;;;;;;;4.78;1.83;;;13.00;99.90;;;14.48;93.55;99847.03;5054716;28;20055;-80
2021/05/11 04:09:54;;;;;;;2.40;1.63;;;13.00;99.90;;;14.50;93.37;99841.03;5073381;28;20111;-78
2021/05/11 04:12:45;;;;;;;4.45;1.83;;;13.00;99.90;;;14.48;93.31;99832.22;5073511;28;20041;-80
2021/05/11 04:17:57;;;;;;;2.95;1.58;;;13.00;99.90;;;14.51;93.57;99822.97;5074378;28;20031;-79
2021/05/11 04:20:23;;;;;;;4.25;1.92;;;13.00;99.90;;;14.51;93.48;99817.34;5072854;28;20411;-81
2021/05/11 04:22:49;;;;;;;4.32;1.60;;;13.00;99.90;;;14.56;94.06;99819.75;5056234;28;20029;-81
2021/05/11 04:25:15;;;;;;;4.80;2.10;;;13.00;99.90;;;14.60;93.97;99812.09;5072654;28;20025;-80
2021/05/11 04:27:41;;;;;;;3.20;1.90;;;13.00;99.90;;;14.70;93.98;99817.69;5076573;28;20047;-80
2021/05/11 04:30:08;;;;;;;2.30;1.83;;;13.10;99.90;;;14.79;94.02;99820.09;5073733;28;20055;-82
2021/05/11 04:32:34;;;;;;;4.35;2.25;;;13.20;99.90;;;14.89;93.87;99824.88;5057122;28;20119;-78
2021/05/11 04:35:00;;;;;;;2.90;2.15;;;13.20;99.90;;;14.96;93.87;99824.03;5058579;28;20059;-82
2021/05/11 04:37:26;;;;;;;5.80;2.60;;;13.30;99.90;;;15.07;93.50;99830.41;5062669;28;20054;-81
2021/05/11 04:39:53;;;;;;;6.15;2.70;;;13.40;99.90;;;15.17;93.29;99827.56;5066395;28;20048;-84
2021/05/11 04:42:20;;;;;;;4.47;2.47;;;13.50;99.90;;;15.30;93.15;99834.34;5074523;28;20084;-81
2021/05/11 04:44:46;;;;;;;4.57;2.13;;;13.60;99.90;;;15.44;92.82;99833.47;5078638;28;20064;-80
2021/05/11 04:47:19;;;;;;;4.97;2.40;;;13.70;99.90;;;15.56;92.45;99835.03;5079784;28;20090;-82
2021/05/11 04:49:45;;;;;;;5.13;2.90;;;13.80;99.90;;;15.61;91.70;99845.84;5060225;28;20035;-81
2021/05/11 04:52:11;;;;;;;3.72;2.42;;;13.90;99.90;;;15.65;91.19;99852.25;5062525;28;20028;-82
2021/05/11 04:54:37;;;;;;;6.88;3.05;;;14.00;99.90;;;15.74;90.99;99844.16;5062347;28;20442;-81
2021/05/11 04:57:05;;;;;;;5.22;3.25;;;14.10;99.90;;;15.66;91.11;99842.59;5076555;28;20063;-79
2021/05/11 04:59:30;;;;;;;5.05;2.70;;;14.10;99.90;;;15.69;91.10;99850.22;5058866;28;20033;-78
2021/05/11 05:01:57;;;;;;;5.30;3.22;;;14.10;99.90;;;15.74;90.98;99841.31;5079325;28;20527;-80
2021/05/11 05:04:23;;;;;;;6.13;3.33;;;14.10;99.90;;;15.69;90.92;99836.94;5058786;28;20024;-81
2021/05/11 05:06:49;;;;;;;4.70;3.13;;;14.10;99.90;;;15.66;90.68;99834.97;5059447;28;20372;-81
2021/05/11 05:09:17;;;;;;;3.20;2.50;;;14.10;99.90;;;15.71;90.70;99836.53;5059186;28;20527;-81
2021/05/11 05:11:42;;;;;;;5.45;3.00;;;14.10;99.90;;;15.73;90.91;99826.44;5078065;28;20139;-82
2021/05/11 05:14:09;;;;;;;5.05;3.08;;;14.20;99.90;;;15.72;90.60;99827.69;5057240;28;20318;-82
2021/05/11 05:16:36;;;;;;;2.70;2.50;;;14.10;99.90;;;15.76;90.74;99830.47;5076802;28;20032;-81
2021/05/11 05:19:06;;;;;;;3.55;2.72;;;14.10;99.90;;;15.83;90.59;99828.38;5059368;28;20024;-82
2021/05/11 05:21:33;;;;;;;3.30;2.85;;;14.20;99.90;;;15.94;90.02;99830.31;5060214;28;20021;-82
2021/05/11 05:24:14;;;;;;;3.97;2.78;;;14.20;99.90;;;15.97;89.74;99829.50;5057547;28;20048;-83
2021/05/11 05:26:40;;;;;;;4.93;2.85;;;14.20;99.90;;;15.90;89.54;99835.97;5058763;28;20028;-81
2021/05/11 05:29:06;;;;;;;4.03;2.75;;;14.30;99.90;;;15.82;90.27;99838.06;5076214;28;20031;-81
2021/05/11 05:31:35;;;;;;;4.15;2.88;;;14.20;99.90;;;15.75;90.00;99840.94;5058046;28;20041;-84
2021/05/11 05:34:00;;;;;;;4.13;2.83;;;14.20;99.90;;;15.69;90.21;99834.13;5059016;28;20495;-84
2021/05/11 05:36:26;;;;;;;5.22;3.15;;;14.10;99.90;;;15.66;90.44;99828.53;5058676;28;20036;-85
2021/05/11 05:38:53;;;;;;;3.35;2.97;;;14.10;99.90;;;15.68;90.67;99829.72;5059436;28;20031;-80
2021/05/11 05:41:22;;;;;;;4.15;3.00;;;14.10;99.90;;;15.78;90.50;99828.84;5076450;28;20024;-81
2021/05/11 05:43:49;;;;;;;4.10;2.75;;;14.10;99.90;;;15.85;90.16;99821.56;5076785;28;20044;-83
2021/05/11 05:46:16;;;;;;;5.50;3.10;;;14.20;99.90;;;15.92;90.10;99813.06;5076772;28;20107;-81
2021/05/11 05:48:43;;;;;;;4.15;3.25;;;14.30;99.90;;;16.11;89.68;99813.31;5057376;28;20031;-80
2021/05/11 05:51:09;;;;;;;3.95;2.97;;;14.30;99.90;;;16.30;88.81;99800.66;5076765;28;20026;-79
2021/05/11 05:53:42;;;;;;;3.95;2.53;;;14.50;99.90;;;16.63;87.77;99801.97;5058157;28;20021;-80
2021/05/11 05:56:10;;;;;;;3.80;3.00;;;14.70;99.90;;;16.81;85.73;99794.88;5058592;28;20115;-80
2021/05/11 05:58:36;;;;;;;4.10;3.05;;;14.90;99.90;;;17.11;83.86;99796.16;5058634;28;20472;-81
2021/05/11 06:01:09;;;;;;;4.00;2.80;;;15.20;99.90;;;17.35;83.42;99784.50;5057974;28;20039;-80
2021/05/11 06:06:12;;;;;;;3.45;2.55;;;15.60;99.90;;;17.53;81.69;99795.53;5077471;28;20035;-80
2021/05/11 06:08:42;;;;;;;6.00;3.08;;;15.70;99.90;;;17.39;81.96;99795.75;5058642;28;20522;-82
2021/05/11 06:19:16;;;;;;;4.07;3.10;;;15.60;99.90;;;17.43;83.61;99795.69;5076785;28;20044;-79
2021/05/11 06:21:42;;;;;;;5.20;4.22;;;15.60;99.90;;;17.48;81.60;99806.50;5057270;28;20025;-79
2021/05/11 06:24:09;;;;;;;5.22;3.88;;;15.70;99.90;;;17.32;81.97;99809.94;5076213;28;20025;-80
2021/05/11 06:26:35;;;;;;;5.25;3.78;;;15.60;99.90;;;17.35;81.96;99815.56;5058769;28;20021;-81
2021/05/11 06:29:02;;;;;;;5.95;3.72;;;15.60;99.90;;;17.44;81.64;99822.69;5058439;28;20220;-81
2021/05/11 06:31:28;;;;;;;8.05;4.80;;;15.70;99.90;;;17.31;82.67;99831.72;5075375;28;20027;-81
2021/05/11 06:33:54;;;;;;;6.43;3.95;;;15.60;99.90;;;17.31;81.87;99828.91;5057414;28;20025;-82
2021/05/11 06:36:24;;;;;;;8.27;4.97;;;15.60;99.90;;;17.22;82.39;99839.91;5066710;28;20127;-82
2021/05/11 06:38:49;;;;;;;9.88;4.60;;;15.60;99.90;;;17.20;82.24;99830.28;5073974;28;20120;-80
2021/05/11 06:41:17;;;;;;;6.50;4.30;;;15.50;99.90;;;17.17;81.66;99853.69;5075063;28;20055;-81
2021/05/11 06:43:44;;;;;;;4.80;3.90;;;15.50;99.90;;;17.09;81.30;99861.44;5057795;28;20033;-81
2021/05/11 06:49:06;;;;;;;10.98;5.68;;;15.30;99.90;;;17.02;82.23;99863.53;5076809;28;20025;-80
2021/05/11 06:53:52;;;;;;;6.00;4.53;;;15.20;99.90;;;16.84;82.94;99864.56;5076351;28;20031;-82
2021/05/11 06:56:22;;;;;;;8.88;4.25;;;15.20;99.90;;;16.83;83.15;99862.94;5077254;28;20471;-82
2021/05/11 06:58:49;;;;;;;7.28;4.38;;;15.10;99.90;;;16.80;83.24;99862.97;5077994;28;20108;-80
2021/05/11 07:01:21;;;;;;;8.10;4.40;;;15.10;99.90;;;16.80;83.04;99854.53;5061225;28;20025;-80
2021/05/11 07:03:47;;;;;;;7.50;5.15;;;15.10;99.90;;;16.73;83.63;99860.22;5096041;28;20030;-77
2021/05/11 07:06:15;;;;;;;7.00;4.38;;;15.00;99.90;;;16.71;83.43;99851.41;5067135;28;20040;-82
2021/05/11 07:08:48;;;;;;;5.18;3.85;;;15.00;99.90;;;16.74;84.15;99853.38;5075988;28;20046;-79
2021/05/11 07:13:49;;;;;;;7.47;4.32;;;15.00;99.90;;;16.84;84.02;99853.28;5075251;28;20411;-80
2021/05/11 07:16:15;;;;;;;6.68;4.35;;;15.10;99.90;;;16.98;83.98;99840.22;5073991;28;20036;-81
2021/05/11 07:18:41;;;;;;;6.68;4.25;;;15.20;99.90;;;17.13;83.37;99839.63;5075575;28;20056;-79
2021/05/11 07:21:07;;;;;;;5.85;3.97;;;15.30;99.90;;;17.44;82.38;99831.16;5056845;28;20432;-80
2021/05/11 07:23:33;;;;;;;7.50;4.47;;;15.50;99.90;;;17.78;82.09;99837.56;5056850;28;20024;-82
2021/05/11 07:26:25;;;;;;;7.53;5.55;;;15.80;99.90;;;18.06;80.62;99830.66;5057919;28;20025;-79
2021/05/11 07:31:33;;;;;;;9.80;5.15;;;16.30;99.90;;;18.48;77.49;99843.28;5075208;28;20028;-82
2021/05/11 07:34:02;;;;;;;8.18;5.32;;;16.50;99.90;;;18.67;75.30;99842.56;5075673;28;20021;-81
2021/05/11 07:36:28;;;;;;;9.05;5.47;;;16.60;99.90;;;18.82;74.88;99844.66;5060960;28;20077;-80
2021/05/11 07:38:55;;;;;;;10.02;5.80;;;16.80;99.90;;;18.91;73.90;99849.78;5060903;28;20025;-82
2021/05/11 07:41:21;;;;;;;8.23;5.80;;;16.90;99.90;;;18.89;72.86;99838.06;5061980;28;20234;-83
2021/05/11 07:43:53;;;;;;;8.80;5.35;;;17.00;99.90;;;18.85;73.04;99838.16;5055284;28;20021;-84
2021/05/11 08:05:21;;;;;;;9.98;5.88;;;17.30;99.90;;;19.35;70.88;99775.66;5082442;28;20042;-82
2021/05/11 08:15:58;;;;;;;16.60;8.57;;;17.20;99.90;;;19.29;70.94;99783.06;5084942;28;20055;-82
2021/05/11 08:29:13;;;;;;;13.45;7.90;;;17.30;99.90;;;19.00;71.52;99782.09;5080675;28;20082;-82
2021/05/11 08:31:40;;;;;;;10.95;7.45;;;17.20;99.90;;;18.97;71.74;99782.16;5076182;28;20037;-79
2021/05/11 08:34:06;;;;;;;19.98;8.38;;;17.10;99.90;;;18.86;71.90;99780.34;5076212;28;20441;-82
2021/05/11 08:36:32;;;;;;;11.65;7.70;;;17.00;99.90;;;18.69;71.77;99786.34;5075974;28;20020;-81
2021/05/11 08:38:59;;;;;;;10.68;6.57;;;16.90;99.90;;;18.51;72.64;99780.22;5058551;28;20115;-81
2021/05/11 08:41:26;;;;;;;10.25;7.10;;;16.80;99.90;;;18.39;72.44;99785.28;5075773;28;20053;-82
2021/05/11 08:43:52;;;;;;;8.90;5.90;;;16.70;99.90;;;18.25;72.77;99776.22;5056864;28;20105;-82
2021/05/11 08:46:19;;;;;;;7.82;5.05;;;16.50;99.90;;;18.17;72.55;99771.94;5056756;28;20163;-81
2021/05/11 08:48:46;;;;;;;6.57;3.70;;;16.50;99.90;;;18.27;72.56;99770.94;5056661;28;20033;-80
2021/05/11 08:51:24;;;;;;;5.47;3.45;;;16.50;99.90;;;18.46;71.25;99786.38;5056518;28;20368;-80
2021/05/11 09:25:44;;;;;;;3.25;1.52;;;18.20;99.90;;;19.84;60.17;99778.59;5057928;28;20458;-80
2021/05/11 09:33:36;;;;;;;2.63;1.60;;;17.60;99.90;;;19.03;63.87;99758.56;5060845;28;20025;-81
2021/05/11 10:48:47;;;;;;;8.10;7.18;;;16.60;99.90;;;18.10;72.12;99774.91;5080321;28;20047;-80
2021/05/11 10:51:26;;;;;;;10.40;9.20;;;16.50;99.90;;;17.95;72.71;99785.63;5059087;28;20104;-81
2021/05/11 10:54:09;;;;;;;10.57;7.97;;;16.50;99.90;;;17.87;72.56;99789.81;5080554;28;20028;-81
2021/05/11 10:56:40;;;;;;;12.32;8.98;;;16.40;99.90;;;17.60;74.71;99794.66;5078948;28;20035;-79
2021/05/11 10:59:24;;;;;;;10.18;8.07;;;16.30;99.90;;;17.46;74.38;99787.19;5081045;28;20032;-81
2021/05/11 11:02:02;;;;;;;12.68;8.32;;;16.20;99.90;;;17.30;75.75;99785.00;5062358;28;20028;-80
2021/05/11 11:04:44;;;;;;;12.38;8.40;;;16.00;99.90;;;17.28;75.25;99776.13;5064123;28;20032;-82
2021/05/11 11:07:11;;;;;;;10.30;7.85;;;15.90;99.90;;;16.97;76.23;99756.81;5080866;28;20086;-81
2021/05/11 11:09:54;;;;;;;8.73;7.05;;;15.80;99.90;;;16.74;77.54;99751.88;5081604;28;20077;-81
2021/05/11 11:12:22;;;;;;;7.47;6.63;;;15.60;99.90;;;16.80;77.71;99744.53;5061484;28;20039;-80
2021/05/11 11:14:48;;;;;;;10.20;6.82;;;15.50;99.90;;;16.84;77.53;99719.91;5062367;28;20028;-78
2021/05/11 11:17:16;;;;;;;10.07;7.30;;;15.50;99.90;;;16.72;79.04;99712.03;5062294;28;20029;-79
2021/05/11 11:19:54;;;;;;;9.90;6.68;;;15.50;99.90;;;16.73;78.45;99717.22;5062466;28;20025;-81
2021/05/11 11:25:06;;;;;;;6.95;5.85;;;15.40;99.90;;;16.61;79.14;99705.72;5080642;28;20048;-82
2021/05/11 11:27:34;;;;;;;7.82;5.15;;;15.40;99.90;;;16.65;78.90;99727.00;5080705;28;20076;-78
2021/05/11 11:30:11;;;;;;;5.95;4.72;;;15.30;99.90;;;16.54;78.75;99751.66;5063258;28;20123;-79
2021/05/11 11:32:38;;;;;;;6.97;4.50;;;15.30;99.90;;;16.66;79.06;99759.59;5074782;23;20037;-81
2021/05/11 11:35:08;;;;;;;6.20;3.50;;;15.30;99.90;;;16.72;78.07;99763.59;5078208;28;20032;-81
2021/05/11 11:37:35;;;;;;;4.80;4.15;;;15.30;99.90;;;16.77;77.69;99768.75;5065539;28;20088;-83
2021/05/11 11:40:10;;;;;;;5.75;3.05;;;15.30;99.90;;;16.83;77.63;99769.06;5103524;28;20096;-81
2021/05/11 11:42:41;;;;;;;8.07;3.60;;;15.40;99.90;;;16.85;77.35;99764.63;5082116;28;20075;-80
2021/05/11 11:45:20;;;;;;;6.18;3.70;;;15.40;99.90;;;17.01;76.32;99772.50;5097856;28;20047;-80
2021/05/11 11:48:04;;;;;;;6.03;3.35;;;15.50;99.90;;;17.11;76.04;99771.56;5090280;28;20023;-82
2021/05/11 11:50:36;;;;;;;4.70;3.85;;;15.50;99.90;;;17.11;75.69;99776.41;5118580;28;20523;-82
2021/05/11 11:53:14;;;;;;;4.47;3.80;;;15.60;99.90;;;17.12;76.36;99783.63;5099876;28;20123;-81
2021/05/11 11:58:26;;;;;;;4.68;3.78;;;15.70;99.90;;;17.14;75.79;99776.34;5096905;28;20344;-81
2021/05/11 12:00:52;;;;;;;5.20;3.78;;;15.70;99.90;;;17.17;76.07;99772.69;5081232;28;20477;-80
2021/05/11 12:03:21;;;;;;;7.78;4.57;;;15.70;99.90;;;17.09;77.20;99778.81;5109482;28;20479;-80
2021/05/11 12:08:21;;;;;;;8.23;4.72;;;15.70;99.90;;;17.08;77.86;99774.41;5128214;28;20039;-79
2021/05/11 12:10:55;;;;;;;4.88;3.92;;;15.70;99.90;;;17.07;78.25;99773.63;5096077;28;20028;-79
2021/05/11 12:13:31;;;;;;;5.93;4.30;;;15.50;99.90;;;16.86;78.22;99788.78;5104615;28;20124;-80
2021/05/11 12:16:17;;;;;;;7.80;5.13;;;15.40;99.90;;;16.79;79.50;99788.09;5118447;28;20030;-82
2021/05/11 12:19:27;;;;;;;6.68;5.80;;;15.30;99.90;;;16.67;80.83;99797.84;5117137;28;20040;-80
2021/05/11 12:22:06;;;;;;;8.13;6.03;;;15.30;99.90;;;16.61;81.59;99791.09;5053752;28;20401;-82
2021/05/11 12:24:41;;;;;;;7.00;5.82;;;15.30;99.90;;;16.66;83.11;99787.03;5079736;28;20032;-79
2021/05/11 12:27:22;;;;;;;8.40;6.18;;;15.30;99.90;;;16.59;83.23;99778.63;5075274;28;20021;-80
2021/05/11 12:30:10;;;;;;;6.32;5.70;;;15.20;99.90;;;16.61;83.11;99777.00;5071801;28;20033;-80
2021/05/11 12:32:37;;;;;;;6.22;5.47;;;15.20;99.90;;;16.54;83.48;99784.69;5077767;28;20075;-81
2021/05/11 12:35:16;;;;;;;6.28;4.78;;;15.20;99.90;;;16.58;82.81;99780.66;5076114;28;20035;-81
2021/05/11 12:37:53;;;;;;;5.95;4.50;;;15.20;99.90;;;16.70;82.58;99785.75;5076936;28;20051;-80
2021/05/11 12:40:28;;;;;;;6.53;3.67;;;15.30;99.90;;;17.07;80.81;99775.63;5077276;28;20115;-80
2021/05/11 12:42:57;;;;;;;6.30;4.65;;;15.50;99.90;;;17.23;79.64;99773.00;5076324;28;20043;-80
2021/05/11 12:45:25;;;;;;;6.55;4.88;;;15.60;99.90;;;17.36;80.50;99783.28;5076571;28;20026;-81
2021/05/11 12:48:05;;;;;;;4.60;4.00;;;15.80;99.90;;;17.54;79.29;99785.84;5077087;28;20067;-80
2021/05/11 12:50:40;;;;;;;5.55;4.50;;;15.90;99.90;;;17.58;78.77;99797.91;5078703;28;20029;-80
2021/05/11 12:53:39;;;;;;;5.75;4.82;;;15.90;99.90;;;17.38;79.27;99788.50;5077170;28;20024;-78
2021/05/11 12:56:25;;;;;;;5.30;4.80;;;15.90;99.90;;;17.42;79.31;99794.91;5077586;28;20482;-80
2021/05/11 12:59:12;;;;;;;4.90;4.22;;;15.80;99.90;;;17.30;80.38;99806.78;5077874;28;20035;-79
2021/05/11 13:13:42;;;;;;;8.68;4.90;;;15.50;99.90;;;16.86;80.37;99777.50;5099273;28;20043;-79
2021/05/11 13:25:42;;;;;;;6.10;4.00;;;15.90;99.90;;;17.36;80.30;99768.38;5120773;28;20027;-80
2021/05/11 13:35:39;;;;;;;5.25;3.28;;;15.70;99.90;;;16.92;79.97;99769.34;5120599;28;20395;-79
2021/05/11 13:38:06;;;;;;;4.15;3.10;;;15.50;99.90;;;17.05;80.31;99776.03;5101545;28;20031;-80
2021/05/11 13:40:35;;;;;;;4.75;3.28;;;15.60;99.90;;;17.22;80.54;99766.53;5119339;28;20023;-79
2021/05/11 13:43:02;;;;;;;4.20;2.55;;;15.60;99.90;;;17.31;80.09;99769.63;5101373;28;20142;-79
2021/05/11 13:45:28;;;;;;;3.40;2.30;;;15.70;99.90;;;17.39;79.79;99771.16;5101939;28;20047;-79
2021/05/11 13:50:31;;;;;;;5.07;3.45;;;15.70;99.90;;;17.31;79.11;99766.81;5118441;28;20046;-82
2021/05/11 13:52:57;;;;;;;4.10;2.85;;;15.70;99.90;;;17.22;79.28;99769.38;5098440;28;20054;-82
2021/05/11 13:55:33;;;;;;;5.53;3.38;;;15.70;99.90;;;17.20;80.61;99769.00;5082556;28;20027;-80
2021/05/11 14:03:28;;;;;;;6.10;3.88;;;15.80;99.90;;;17.37;80.75;99772.78;5120846;28;20047;-79
2021/05/11 14:05:54;;;;;;;5.38;4.50;;;15.80;99.90;;;17.32;80.41;99771.25;5101336;28;20024;-79
2021/05/11 14:08:20;;;;;;;5.97;4.22;;;15.80;99.90;;;17.37;79.95;99773.59;5109299;28;20028;-80
2021/05/11 14:10:46;;;;;;;6.07;4.22;;;15.80;99.90;;;17.36;80.51;99765.56;5083618;28;20058;-78
2021/05/11 14:13:12;;;;;;;5.05;4.55;;;15.80;99.90;;;17.26;80.07;99761.66;5080593;28;20067;-81
2021/05/11 14:15:39;;;;;;;5.80;4.45;;;15.80;99.90;;;17.42;79.83;99765.88;5098502;28;20046;-79
2021/05/11 14:18:04;;;;;;;6.80;5.10;;;15.80;99.90;;;17.63;79.50;99759.91;5098258;28;20032;-79
2021/05/11 14:20:30;;;;;;;6.22;3.97;;;15.90;99.90;;;17.90;79.56;99769.19;5088090;28;20031;-79
2021/05/11 14:22:57;;;;;;;4.70;3.85;;;16.10;99.90;;;18.05;78.85;99767.69;5105052;28;20115;-79
2021/05/11 14:25:23;;;;;;;6.85;4.35;;;16.30;99.90;;;17.96;77.63;99761.81;5112486;28;20031;-80
2021/05/11 14:27:49;;;;;;;5.18;4.07;;;16.30;99.90;;;17.87;78.27;99764.38;5114584;28;20042;-79
2021/05/11 14:30:16;;;;;;;4.90;4.18;;;16.30;99.90;;;18.01;78.08;99757.69;5088304;28;20049;-79
2021/05/11 14:32:42;;;;;;;4.60;4.03;;;16.30;99.90;;;18.08;77.71;99769.66;5078978;28;20403;-79
2021/05/11 14:35:09;;;;;;;3.67;3.05;;;16.30;99.90;;;18.04;76.85;99759.66;5100537;28;20111;-79
2021/05/11 14:37:35;;;;;;;4.45;3.72;;;16.30;99.90;;;18.05;77.20;99766.91;5080019;28;20032;-80
2021/05/11 14:40:01;;;;;;;5.88;4.18;;;16.30;99.90;;;18.04;77.73;99760.47;5081258;28;20554;-79
2021/05/11 14:42:27;;;;;;;4.78;3.30;;;16.30;99.90;;;18.06;77.75;99760.81;5097707;28;20028;-79
2021/05/11 14:44:54;;;;;;;3.95;3.55;;;16.30;99.90;;;18.03;77.68;99761.69;5098184;28;20050;-80
2021/05/11 14:47:20;;;;;;;3.38;2.97;;;16.30;99.90;;;18.02;77.54;99754.44;5099275;28;20048;-80
2021/05/11 14:49:47;;;;;;;6.70;3.72;;;16.30;99.90;;;17.95;77.29;99757.38;5099705;28;20028;-81
2021/05/11 14:52:26;;;;;;;5.10;3.90;;;16.20;99.90;;;17.84;78.18;99753.94;5101045;28;20575;-79
2021/05/11 14:54:53;;;;;;;6.18;3.70;;;16.20;99.90;;;17.62;77.68;99752.69;5085729;28;20040;-79
2021/05/11 14:57:24;;;;;;;3.30;2.83;;;16.00;99.90;;;17.47;79.38;99748.44;5082565;28;20036;-79
2021/05/11 14:59:53;;;;;;;4.22;3.50;;;15.90;99.90;;;17.18;79.36;99745.22;5083477;28;20048;-82